Time,TemperatureF,DewpointF,PressureIn,WindDirection,WindDirectionDegrees,WindSpeedMPH,WindSpeedGustMPH,Humidity,HourlyPrecipIn,Conditions,Clouds,dailyrainin,SoftwareType,DateUTC
2013-06-05 00:01:00,64.2,50.9,30.81,NNW,338,6.2,6.2,62,0.00,,CLR,0.00,VWS V14.00,2013-06-05 07:01:00,
2013-06-05 00:06:00,64.0,50.7,30.81,NW,315,0.0,2.0,62,0.00,,CLR,0.00,VWS V14.00,2013-06-05 07:06:00,
2013-06-05 00:11:00,64.0,50.3,30.81,NW,315,0.0,0.0,61,0.00,,CLR,0.00,VWS V14.00,2013-06-05 07:11:00,
2013-06-05 00:16:00,63.6,50.4,30.81,NW,315,0.0,0.0,62,0.00,,CLR,0.00,VWS V14.00,2013-06-05 07:16:00,
2013-06-05 00:21:00,63.5,50.3,30.80,NE,45,0.0,0.0,62,0.00,,CLR,0.00,VWS V14.00,2013-06-05 07:21:00,
2013-06-05 00:26:00,64.0,50.3,30.81,NW,315,1.5,1.5,61,0.00,,CLR,0.00,VWS V14.00,2013-06-05 07:26:00,
2013-06-05 00:32:00,64.2,50.5,30.81,NW,315,0.0,0.0,61,0.00,,CLR,0.00,VWS V14.00,2013-06-05 07:32:00,
2013-06-05 00:37:00,64.0,49.8,30.81,NNW,338,6.4,6.4,60,0.00,,CLR,0.00,VWS V14.00,2013-06-05 07:37:00,
2013-06-05 00:42:00,64.2,50.0,30.81,NW,315,0.0,0.0,60,0.00,,CLR,0.00,VWS V14.00,2013-06-05 07:42:00,
2013-06-05 00:47:00,64.2,49.6,30.81,NW,315,4.4,4.4,59,0.00,,CLR,0.00,VWS V14.00,2013-06-05 07:47:00,
2013-06-05 00:52:00,64.4,49.8,30.81,NW,315,10.0,10.0,59,0.00,,CLR,0.00,VWS V14.00,2013-06-05 07:52:00,
2013-06-05 00:57:00,64.5,49.4,30.81,NNW,338,9.1,9.1,58,0.00,,CLR,0.00,VWS V14.00,2013-06-05 07:57:00,
2013-06-05 01:02:00,64.5,49.4,30.81,NW,315,6.7,6.7,58,0.00,,CLR,0.00,VWS V14.00,2013-06-05 08:02:00,
2013-06-05 01:07:00,64.2,49.1,30.81,NNW,338,1.1,1.1,58,0.00,,CLR,0.00,VWS V14.00,2013-06-05 08:07:00,
2013-06-05 01:12:00,64.2,49.1,30.81,NNW,338,5.5,5.5,58,0.00,,CLR,0.00,VWS V14.00,2013-06-05 08:12:00,
2013-06-05 01:17:00,64.0,48.9,30.81,NW,315,7.8,7.8,58,0.00,,CLR,0.00,VWS V14.00,2013-06-05 08:17:00,
2013-06-05 01:22:00,64.0,48.9,30.81,NW,315,8.7,8.7,58,0.00,,CLR,0.00,VWS V14.00,2013-06-05 08:22:00,
2013-06-05 01:27:00,63.6,48.6,30.81,NNW,338,3.1,3.1,58,0.00,,CLR,0.00,VWS V14.00,2013-06-05 08:27:00,
2013-06-05 01:32:00,63.5,48.9,30.81,North,0,0.0,0.0,59,0.00,,CLR,0.00,VWS V14.00,2013-06-05 08:32:00,
2013-06-05 01:37:00,62.9,49.3,30.81,North,0,0.0,0.0,61,0.00,,CLR,0.00,VWS V14.00,2013-06-05 08:37:00,
2013-06-05 01:42:00,62.4,48.8,30.81,NW,315,0.0,0.0,61,0.00,,CLR,0.00,VWS V14.00,2013-06-05 08:42:00,
2013-06-05 01:47:00,61.8,48.7,30.81,NNE,22,0.0,0.0,62,0.00,,CLR,0.00,VWS V14.00,2013-06-05 08:47:00,
2013-06-05 01:52:00,61.5,48.8,30.81,NNE,22,0.0,0.0,63,0.00,,CLR,0.00,VWS V14.00,2013-06-05 08:52:00,
2013-06-05 01:57:00,61.3,48.2,30.81,NNE,22,0.0,0.0,62,0.00,,CLR,0.00,VWS V14.00,2013-06-05 08:57:00,
2013-06-05 02:02:00,61.5,48.4,30.81,NW,315,1.5,1.5,62,0.00,,CLR,0.00,VWS V14.00,2013-06-05 09:02:00,
2013-06-05 02:07:00,61.7,48.1,30.81,NW,315,0.0,0.0,61,0.00,,CLR,0.00,VWS V14.00,2013-06-05 09:07:00,
2013-06-05 02:12:00,62.0,48.4,30.81,WNW,292,2.2,2.2,61,0.00,,CLR,0.00,VWS V14.00,2013-06-05 09:12:00,
2013-06-05 02:17:00,62.2,48.2,30.81,NNW,338,0.0,0.0,60,0.00,,CLR,0.00,VWS V14.00,2013-06-05 09:17:00,
2013-06-05 02:22:00,62.2,47.7,30.82,NW,315,3.3,3.3,59,0.00,,CLR,0.00,VWS V14.00,2013-06-05 09:22:00,
2013-06-05 02:27:00,62.4,47.9,30.82,NW,315,7.3,7.3,59,0.00,,CLR,0.00,VWS V14.00,2013-06-05 09:27:00,
2013-06-05 02:32:00,62.4,47.5,30.82,North,0,0.0,0.0,58,0.00,,CLR,0.00,VWS V14.00,2013-06-05 09:32:00,
2013-06-05 02:37:00,62.2,47.7,30.83,North,0,2.4,2.4,59,0.00,,CLR,0.00,VWS V14.00,2013-06-05 09:37:00,
2013-06-05 02:42:00,61.5,48.4,30.83,NNE,22,6.0,6.0,62,0.00,,CLR,0.00,VWS V14.00,2013-06-05 09:42:00,
2013-06-05 02:47:00,60.6,48.4,30.83,NNW,338,6.4,6.4,64,0.00,,CLR,0.00,VWS V14.00,2013-06-05 09:47:00,
2013-06-05 02:52:00,60.0,47.8,30.83,North,0,10.5,10.5,64,0.00,,CLR,0.00,VWS V14.00,2013-06-05 09:52:00,
2013-06-05 02:57:00,59.5,48.5,30.83,North,0,9.6,9.6,67,0.00,,CLR,0.00,VWS V14.00,2013-06-05 09:57:00,
2013-06-05 03:02:00,58.8,47.9,30.83,North,0,10.0,10.0,67,0.00,,CLR,0.00,VWS V14.00,2013-06-05 10:02:00,
2013-06-05 03:07:00,58.8,47.9,30.83,North,0,7.1,7.1,67,0.00,,CLR,0.00,VWS V14.00,2013-06-05 10:07:00,
2013-06-05 03:12:00,58.8,48.3,30.83,North,0,8.7,8.7,68,0.00,,CLR,0.00,VWS V14.00,2013-06-05 10:12:00,
2013-06-05 03:17:00,58.6,47.3,30.83,NNW,338,9.3,9.3,66,0.00,,CLR,0.00,VWS V14.00,2013-06-05 10:17:00,
2013-06-05 03:22:00,58.4,47.1,30.83,NNW,338,8.7,8.7,66,0.00,,CLR,0.00,VWS V14.00,2013-06-05 10:22:00,
2013-06-05 03:27:00,58.2,46.9,30.82,NNW,338,9.6,9.6,66,0.00,,CLR,0.00,VWS V14.00,2013-06-05 10:27:00,
2013-06-05 03:32:00,58.1,46.8,30.83,NNW,338,8.2,8.2,66,0.00,,CLR,0.00,VWS V14.00,2013-06-05 10:32:00,
2013-06-05 03:37:00,57.9,47.0,30.82,NNW,338,7.8,7.8,67,0.00,,CLR,0.00,VWS V14.00,2013-06-05 10:37:00,
2013-06-05 03:42:00,57.5,46.6,30.83,NNW,338,5.5,5.5,67,0.00,,CLR,0.00,VWS V14.00,2013-06-05 10:42:00,
2013-06-05 03:47:00,57.3,46.8,30.82,North,0,4.4,4.4,68,0.00,,CLR,0.00,VWS V14.00,2013-06-05 10:47:00,
2013-06-05 03:52:00,57.2,47.1,30.82,North,0,6.4,6.4,69,0.00,,CLR,0.00,VWS V14.00,2013-06-05 10:52:00,
2013-06-05 03:57:00,57.0,47.3,30.83,NNW,338,9.3,9.3,70,0.00,,CLR,0.00,VWS V14.00,2013-06-05 10:57:00,
2013-06-05 04:02:00,57.0,47.3,30.83,North,0,4.2,4.2,70,0.00,,CLR,0.00,VWS V14.00,2013-06-05 11:02:00,
2013-06-05 04:07:00,57.0,47.7,30.83,NNW,338,9.3,9.3,71,0.00,,CLR,0.00,VWS V14.00,2013-06-05 11:07:00,
2013-06-05 04:12:00,56.8,47.5,30.83,NNW,338,13.4,13.4,71,0.00,,CLR,0.00,VWS V14.00,2013-06-05 11:12:00,
2013-06-05 04:17:00,56.8,47.5,30.83,North,0,7.6,7.6,71,0.00,,CLR,0.00,VWS V14.00,2013-06-05 11:17:00,
2013-06-05 04:22:00,56.8,47.9,30.83,North,0,9.3,9.3,72,0.00,,CLR,0.00,VWS V14.00,2013-06-05 11:22:00,
2013-06-05 04:27:00,56.8,47.9,30.83,North,0,7.8,7.8,72,0.00,,CLR,0.00,VWS V14.00,2013-06-05 11:27:00,
2013-06-05 04:32:00,56.8,47.5,30.83,North,0,6.7,6.7,71,0.00,,CLR,0.00,VWS V14.00,2013-06-05 11:32:00,
2013-06-05 04:37:00,56.4,46.8,30.83,North,0,7.6,7.6,70,0.00,,CLR,0.00,VWS V14.00,2013-06-05 11:37:00,
2013-06-05 04:42:00,56.4,46.4,30.83,NNW,338,0.0,0.0,69,0.00,,CLR,0.00,VWS V14.00,2013-06-05 11:42:00,
2013-06-05 04:47:00,56.3,46.3,30.83,North,0,0.0,0.0,69,0.00,,CLR,0.00,VWS V14.00,2013-06-05 11:47:00,
2013-06-05 04:52:00,56.1,46.5,30.84,NW,315,6.4,6.4,70,0.00,,CLR,0.00,VWS V14.00,2013-06-05 11:52:00,
2013-06-05 04:57:00,56.1,46.5,30.84,NW,315,7.8,7.8,70,0.00,,CLR,0.00,VWS V14.00,2013-06-05 11:57:00,
2013-06-05 05:02:00,56.1,46.8,30.84,NW,315,8.9,8.9,71,0.00,,CLR,0.00,VWS V14.00,2013-06-05 12:02:00,
2013-06-05 05:07:00,55.9,47.4,30.84,NNW,338,14.3,14.3,73,0.00,,CLR,0.00,VWS V14.00,2013-06-05 12:07:00,
2013-06-05 05:12:00,55.7,47.2,30.84,NNW,338,10.5,10.5,73,0.00,,CLR,0.00,VWS V14.00,2013-06-05 12:12:00,
2013-06-05 05:17:00,55.7,47.5,30.84,NNW,338,8.0,8.0,74,0.00,,CLR,0.00,VWS V14.00,2013-06-05 12:17:00,
2013-06-05 05:22:00,55.5,47.4,30.84,NNW,338,12.0,12.0,74,0.00,,CLR,0.00,VWS V14.00,2013-06-05 12:22:00,
2013-06-05 05:27:00,55.5,47.4,30.84,NW,315,7.8,7.8,74,0.00,,CLR,0.00,VWS V14.00,2013-06-05 12:27:00,
2013-06-05 05:32:00,55.4,46.9,30.84,North,0,6.2,6.2,73,0.00,,CLR,0.00,VWS V14.00,2013-06-05 12:32:00,
2013-06-05 05:37:00,55.2,46.7,30.84,North,0,4.9,4.9,73,0.00,,CLR,0.00,VWS V14.00,2013-06-05 12:37:00,
2013-06-05 05:42:00,55.5,47.0,30.84,NNW,338,5.3,5.3,73,0.00,,CLR,0.00,VWS V14.00,2013-06-05 12:42:00,
2013-06-05 05:47:00,55.9,47.0,30.84,NNW,338,0.0,0.0,72,0.00,,CLR,0.00,VWS V14.00,2013-06-05 12:47:00,
2013-06-05 05:52:00,57.0,47.7,30.84,NNW,338,0.0,0.0,71,0.00,,CLR,0.00,VWS V14.00,2013-06-05 12:52:00,
2013-06-05 05:57:00,58.1,47.6,30.85,NNW,338,0.0,0.0,68,0.00,,CLR,0.00,VWS V14.00,2013-06-05 12:57:00,
2013-06-05 06:02:00,59.0,48.1,30.85,NNW,338,0.0,0.0,67,0.00,,CLR,0.00,VWS V14.00,2013-06-05 13:02:00,
2013-06-05 06:07:00,60.0,48.6,30.85,NNW,338,0.0,0.0,66,0.00,,CLR,0.00,VWS V14.00,2013-06-05 13:07:00,
2013-06-05 06:12:00,60.0,48.2,30.85,NNE,22,0.0,0.0,65,0.00,,CLR,0.00,VWS V14.00,2013-06-05 13:12:00,
2013-06-05 06:17:00,59.3,47.5,30.85,North,0,8.0,8.0,65,0.00,,CLR,0.00,VWS V14.00,2013-06-05 13:17:00,
2013-06-05 06:22:00,59.3,48.4,30.85,NNE,22,10.0,10.0,67,0.00,,CLR,0.00,VWS V14.00,2013-06-05 13:22:00,
2013-06-05 06:27:00,58.8,47.9,30.85,NNE,22,0.0,0.0,67,0.00,,CLR,0.00,VWS V14.00,2013-06-05 13:27:00,
2013-06-05 06:32:00,60.0,48.6,30.86,NE,45,7.1,7.1,66,0.00,,CLR,0.00,VWS V14.00,2013-06-05 13:32:00,
2013-06-05 06:37:00,61.1,48.8,30.86,North,0,3.1,3.1,64,0.00,,CLR,0.00,VWS V14.00,2013-06-05 13:37:00,
2013-06-05 06:42:00,61.1,48.4,30.85,NNE,22,5.3,5.3,63,0.00,,CLR,0.00,VWS V14.00,2013-06-05 13:42:00,
2013-06-05 06:47:00,59.7,47.9,30.86,NNE,22,7.6,7.6,65,0.00,,CLR,0.00,VWS V14.00,2013-06-05 13:47:00,
2013-06-05 06:52:00,59.7,48.3,30.86,North,0,4.9,4.9,66,0.00,,CLR,0.00,VWS V14.00,2013-06-05 13:52:00,
2013-06-05 06:57:00,60.9,49.1,30.86,North,0,0.0,0.0,65,0.00,,CLR,0.00,VWS V14.00,2013-06-05 13:57:00,
2013-06-05 07:02:00,62.9,50.1,30.86,North,0,0.0,0.0,63,0.00,,CLR,0.00,VWS V14.00,2013-06-05 14:02:00,
2013-06-05 07:07:00,64.9,50.2,30.86,North,0,7.8,7.8,59,0.00,,CLR,0.00,VWS V14.00,2013-06-05 14:07:00,
2013-06-05 07:12:00,64.9,50.2,30.86,North,0,6.9,6.9,59,0.00,,CLR,0.00,VWS V14.00,2013-06-05 14:12:00,
2013-06-05 07:17:00,64.0,49.8,30.86,NNW,338,8.2,8.2,60,0.00,,CLR,0.00,VWS V14.00,2013-06-05 14:17:00,
2013-06-05 07:22:00,63.3,50.1,30.86,NNW,338,8.5,8.5,62,0.00,,CLR,0.00,VWS V14.00,2013-06-05 14:22:00,
2013-06-05 07:27:00,63.1,50.3,30.87,North,0,7.8,7.8,63,0.00,,CLR,0.00,VWS V14.00,2013-06-05 14:27:00,
2013-06-05 07:32:00,63.3,50.5,30.86,North,0,6.4,6.4,63,0.00,,CLR,0.00,VWS V14.00,2013-06-05 14:32:00,
2013-06-05 07:37:00,64.0,51.2,30.87,North,0,4.9,4.9,63,0.00,,CLR,0.00,VWS V14.00,2013-06-05 14:37:00,
2013-06-05 07:42:00,64.5,50.8,30.87,North,0,6.7,6.7,61,0.00,,CLR,0.00,VWS V14.00,2013-06-05 14:42:00,
2013-06-05 07:47:00,64.2,50.5,30.87,NNW,338,7.8,7.8,61,0.00,,CLR,0.00,VWS V14.00,2013-06-05 14:47:00,
2013-06-05 07:52:00,64.0,51.2,30.87,North,0,6.9,6.9,63,0.00,,CLR,0.00,VWS V14.00,2013-06-05 14:52:00,
2013-06-05 07:57:00,63.6,50.8,30.87,North,0,8.9,8.9,63,0.00,,CLR,0.00,VWS V14.00,2013-06-05 14:57:00,
2013-06-05 08:02:00,63.1,50.7,30.87,North,0,10.5,10.5,64,0.00,,CLR,0.00,VWS V14.00,2013-06-05 15:02:00,
2013-06-05 08:07:00,62.6,51.1,30.88,North,0,12.5,12.5,66,0.00,,CLR,0.00,VWS V14.00,2013-06-05 15:07:00,
2013-06-05 08:12:00,62.4,50.9,30.87,North,0,9.3,9.3,66,0.00,,CLR,0.00,VWS V14.00,2013-06-05 15:12:00,
2013-06-05 08:17:00,62.4,51.3,30.88,North,0,10.9,10.9,67,0.00,,CLR,0.00,VWS V14.00,2013-06-05 15:17:00,
2013-06-05 08:22:00,63.1,51.6,30.88,NNW,338,10.5,10.5,66,0.00,,CLR,0.00,VWS V14.00,2013-06-05 15:22:00,
2013-06-05 08:27:00,63.1,52.0,30.88,North,0,14.7,14.7,67,0.00,,CLR,0.00,VWS V14.00,2013-06-05 15:27:00,
2013-06-05 08:32:00,62.9,52.2,30.88,North,0,8.9,8.9,68,0.00,,CLR,0.00,VWS V14.00,2013-06-05 15:32:00,
2013-06-05 08:37:00,63.1,52.4,30.88,North,0,12.3,12.3,68,0.00,,CLR,0.00,VWS V14.00,2013-06-05 15:37:00,
2013-06-05 08:42:00,63.3,52.2,30.88,NNW,338,10.5,10.5,67,0.00,,CLR,0.00,VWS V14.00,2013-06-05 15:42:00,
2013-06-05 08:47:00,63.5,52.4,30.89,North,0,10.9,10.9,67,0.00,,CLR,0.00,VWS V14.00,2013-06-05 15:47:00,
2013-06-05 08:52:00,64.2,52.6,30.89,NNW,338,9.3,9.3,66,0.00,,CLR,0.00,VWS V14.00,2013-06-05 15:52:00,
2013-06-05 08:57:00,64.9,52.9,30.88,North,0,9.1,9.1,65,0.00,,CLR,0.00,VWS V14.00,2013-06-05 15:57:00,
2013-06-05 09:02:00,66.7,53.7,30.89,NNW,338,7.1,7.1,63,0.00,,CLR,0.00,VWS V14.00,2013-06-05 16:02:00,
2013-06-05 09:07:00,67.6,54.1,30.89,NNE,22,6.0,6.0,62,0.00,,CLR,0.00,VWS V14.00,2013-06-05 16:07:00,
2013-06-05 09:12:00,68.1,54.2,30.89,NW,315,9.3,9.3,61,0.00,,CLR,0.00,VWS V14.00,2013-06-05 16:12:00,
2013-06-05 09:17:00,68.1,54.2,30.89,NNW,338,8.9,8.9,61,0.00,,CLR,0.00,VWS V14.00,2013-06-05 16:17:00,
2013-06-05 09:22:00,68.7,54.7,30.88,NW,315,7.6,7.6,61,0.00,,CLR,0.00,VWS V14.00,2013-06-05 16:22:00,
2013-06-05 09:27:00,69.6,54.7,30.89,NW,315,8.5,8.5,59,0.00,,CLR,0.00,VWS V14.00,2013-06-05 16:27:00,
2013-06-05 09:32:00,70.1,54.7,30.89,North,0,11.8,11.8,58,0.00,,CLR,0.00,VWS V14.00,2013-06-05 16:32:00,
2013-06-05 09:37:00,69.0,54.1,30.89,North,0,6.7,6.7,59,0.00,,CLR,0.00,VWS V14.00,2013-06-05 16:37:00,
2013-06-05 09:42:00,69.6,54.2,30.88,NW,315,7.3,7.3,58,0.00,,CLR,0.00,VWS V14.00,2013-06-05 16:42:00,
2013-06-05 09:47:00,70.5,54.1,30.88,NNW,338,11.8,11.8,56,0.00,,CLR,0.00,VWS V14.00,2013-06-05 16:47:00,
2013-06-05 09:52:00,71.2,54.7,30.88,NNW,338,6.7,6.7,56,0.00,,CLR,0.00,VWS V14.00,2013-06-05 16:52:00,
2013-06-05 09:57:00,72.1,54.6,30.89,NNW,338,7.3,7.3,54,0.00,,CLR,0.00,VWS V14.00,2013-06-05 16:57:00,
2013-06-05 10:02:00,71.9,54.4,30.89,North,0,6.9,6.9,54,0.00,,CLR,0.00,VWS V14.00,2013-06-05 17:02:00,
2013-06-05 10:07:00,71.7,54.2,30.88,NNW,338,10.7,10.7,54,0.00,,CLR,0.00,VWS V14.00,2013-06-05 17:07:00,
2013-06-05 10:12:00,70.8,53.8,30.88,North,0,12.0,12.0,55,0.00,,CLR,0.00,VWS V14.00,2013-06-05 17:12:00,
2013-06-05 10:17:00,70.1,53.2,30.88,North,0,9.3,9.3,55,0.00,,CLR,0.00,VWS V14.00,2013-06-05 17:17:00,
2013-06-05 10:22:00,69.8,53.9,30.87,North,0,13.4,13.4,57,0.00,,CLR,0.00,VWS V14.00,2013-06-05 17:22:00,
2013-06-05 10:27:00,69.4,54.5,30.88,North,0,11.8,11.8,59,0.00,,CLR,0.00,VWS V14.00,2013-06-05 17:27:00,
2013-06-05 10:32:00,69.4,54.0,30.88,North,0,11.8,11.8,58,0.00,,CLR,0.00,VWS V14.00,2013-06-05 17:32:00,
2013-06-05 10:37:00,69.0,53.6,30.88,North,0,11.1,11.1,58,0.00,,CLR,0.00,VWS V14.00,2013-06-05 17:37:00,
2013-06-05 10:42:00,69.4,54.0,30.88,North,0,12.9,12.9,58,0.00,,CLR,0.00,VWS V14.00,2013-06-05 17:42:00,
2013-06-05 10:47:00,69.4,53.0,30.88,North,0,11.1,11.1,56,0.00,,CLR,0.00,VWS V14.00,2013-06-05 17:47:00,
2013-06-05 10:52:00,69.9,54.0,30.88,North,0,12.0,12.0,57,0.00,,CLR,0.00,VWS V14.00,2013-06-05 17:52:00,
2013-06-05 10:57:00,70.1,54.7,30.88,North,0,8.9,8.9,58,0.00,,CLR,0.00,VWS V14.00,2013-06-05 17:57:00,
2013-06-05 11:02:00,70.8,55.3,30.88,North,0,12.5,12.5,58,0.00,,CLR,0.00,VWS V14.00,2013-06-05 18:02:00,
2013-06-05 11:07:00,70.8,55.3,30.88,North,0,9.3,9.3,58,0.00,,CLR,0.00,VWS V14.00,2013-06-05 18:07:00,
2013-06-05 11:12:00,70.8,54.8,30.88,North,0,10.0,10.0,57,0.00,,CLR,0.00,VWS V14.00,2013-06-05 18:12:00,
2013-06-05 11:17:00,70.8,55.3,30.88,North,0,13.4,13.4,58,0.00,,CLR,0.00,VWS V14.00,2013-06-05 18:17:00,
2013-06-05 11:22:00,70.5,55.5,30.87,North,0,12.0,12.0,59,0.00,,CLR,0.00,VWS V14.00,2013-06-05 18:22:00,
2013-06-05 11:27:00,70.3,55.3,30.87,NNE,22,9.6,9.6,59,0.00,,CLR,0.00,VWS V14.00,2013-06-05 18:27:00,
2013-06-05 11:32:00,70.5,55.5,30.88,North,0,6.7,6.7,59,0.00,,CLR,0.00,VWS V14.00,2013-06-05 18:32:00,
2013-06-05 11:37:00,70.5,55.0,30.87,North,0,9.8,9.8,58,0.00,,CLR,0.00,VWS V14.00,2013-06-05 18:37:00,
2013-06-05 11:42:00,70.3,54.8,30.87,North,0,15.6,15.6,58,0.00,,CLR,0.00,VWS V14.00,2013-06-05 18:42:00,
2013-06-05 11:47:00,70.8,55.3,30.87,North,0,10.0,10.0,58,0.00,,CLR,0.00,VWS V14.00,2013-06-05 18:47:00,
2013-06-05 11:52:00,71.4,54.9,30.87,North,0,15.8,15.8,56,0.00,,CLR,0.00,VWS V14.00,2013-06-05 18:52:00,
2013-06-05 11:57:00,71.2,54.7,30.87,North,0,15.8,15.8,56,0.00,,CLR,0.00,VWS V14.00,2013-06-05 18:57:00,
2013-06-05 12:02:00,70.8,55.3,30.87,North,0,12.3,12.3,58,0.00,,CLR,0.00,VWS V14.00,2013-06-05 19:02:00,
2013-06-05 12:07:00,71.2,55.2,30.87,North,0,10.2,10.2,57,0.00,,CLR,0.00,VWS V14.00,2013-06-05 19:07:00,
2013-06-05 12:12:00,71.4,55.9,30.87,North,0,9.8,9.8,58,0.00,,CLR,0.00,VWS V14.00,2013-06-05 19:12:00,
2013-06-05 12:17:00,71.7,55.7,30.87,North,0,12.9,12.9,57,0.00,,CLR,0.00,VWS V14.00,2013-06-05 19:17:00,
2013-06-05 12:22:00,72.1,55.6,30.86,NNE,22,12.5,12.5,56,0.00,,CLR,0.00,VWS V14.00,2013-06-05 19:22:00,
2013-06-05 12:27:00,72.5,55.9,30.86,North,0,14.7,14.7,56,0.00,,CLR,0.00,VWS V14.00,2013-06-05 19:27:00,
2013-06-05 12:32:00,73.0,55.9,30.86,North,0,12.7,12.7,55,0.00,,CLR,0.00,VWS V14.00,2013-06-05 19:32:00,
2013-06-05 12:37:00,73.5,55.9,30.86,North,0,9.1,9.1,54,0.00,,CLR,0.00,VWS V14.00,2013-06-05 19:37:00,
2013-06-05 12:42:00,74.1,55.9,30.86,North,0,10.9,10.9,53,0.00,,CLR,0.00,VWS V14.00,2013-06-05 19:42:00,
2013-06-05 12:47:00,75.0,56.2,30.86,North,0,11.6,11.6,52,0.00,,CLR,0.00,VWS V14.00,2013-06-05 19:47:00,
2013-06-05 12:52:00,75.3,56.5,30.86,NNW,338,9.3,9.3,52,0.00,,CLR,0.00,VWS V14.00,2013-06-05 19:52:00,
2013-06-05 12:57:00,77.0,57.0,30.85,North,0,14.0,14.0,50,0.00,,CLR,0.00,VWS V14.00,2013-06-05 19:57:00,
2013-06-05 13:02:00,77.7,57.6,30.85,North,0,11.8,11.8,50,0.00,,CLR,0.00,VWS V14.00,2013-06-05 20:02:00,
2013-06-05 13:07:00,77.1,57.6,30.85,NNW,338,7.8,7.8,51,0.00,,CLR,0.00,VWS V14.00,2013-06-05 20:07:00,
2013-06-05 13:12:00,76.8,57.3,30.86,North,0,12.0,12.0,51,0.00,,CLR,0.00,VWS V14.00,2013-06-05 20:12:00,
2013-06-05 13:17:00,75.5,57.2,30.86,North,0,8.5,8.5,53,0.00,,CLR,0.00,VWS V14.00,2013-06-05 20:17:00,
2013-06-05 13:22:00,75.3,57.5,30.85,NNW,338,8.9,8.9,54,0.00,,CLR,0.00,VWS V14.00,2013-06-05 20:22:00,
2013-06-05 13:27:00,75.0,57.2,30.85,North,0,12.5,12.5,54,0.00,,CLR,0.00,VWS V14.00,2013-06-05 20:27:00,
2013-06-05 13:32:00,74.6,57.4,30.85,NNE,22,14.3,14.3,55,0.00,,CLR,0.00,VWS V14.00,2013-06-05 20:32:00,
2013-06-05 13:37:00,73.9,57.2,30.85,North,0,12.5,12.5,56,0.00,,CLR,0.00,VWS V14.00,2013-06-05 20:37:00,
2013-06-05 13:42:00,74.1,57.4,30.85,North,0,12.9,12.9,56,0.00,,CLR,0.00,VWS V14.00,2013-06-05 20:42:00,
2013-06-05 13:47:00,73.9,57.2,30.85,North,0,12.3,12.3,56,0.00,,CLR,0.00,VWS V14.00,2013-06-05 20:47:00,
2013-06-05 13:52:00,74.1,56.9,30.85,NNE,22,12.5,12.5,55,0.00,,CLR,0.00,VWS V14.00,2013-06-05 20:52:00,
2013-06-05 13:57:00,73.9,57.2,30.85,North,0,15.2,15.2,56,0.00,,CLR,0.00,VWS V14.00,2013-06-05 20:57:00,
2013-06-05 14:02:00,73.7,57.0,30.85,North,0,15.2,15.2,56,0.00,,CLR,0.00,VWS V14.00,2013-06-05 21:02:00,
2013-06-05 14:07:00,73.2,57.1,30.85,North,0,14.7,14.7,57,0.00,,CLR,0.00,VWS V14.00,2013-06-05 21:07:00,
2013-06-05 14:12:00,73.0,57.4,30.85,North,0,12.5,12.5,58,0.00,,CLR,0.00,VWS V14.00,2013-06-05 21:12:00,
2013-06-05 14:17:00,73.0,57.4,30.85,North,0,14.3,14.3,58,0.00,,CLR,0.00,VWS V14.00,2013-06-05 21:17:00,
2013-06-05 14:22:00,73.2,57.5,30.85,North,0,14.5,14.5,58,0.00,,CLR,0.00,VWS V14.00,2013-06-05 21:22:00,
2013-06-05 14:27:00,73.2,57.1,30.84,North,0,13.6,13.6,57,0.00,,CLR,0.00,VWS V14.00,2013-06-05 21:27:00,
2013-06-05 14:32:00,73.5,57.8,30.84,North,0,13.8,13.8,58,0.00,,CLR,0.00,VWS V14.00,2013-06-05 21:32:00,
2013-06-05 14:37:00,73.5,57.8,30.84,North,0,11.4,11.4,58,0.00,,CLR,0.00,VWS V14.00,2013-06-05 21:37:00,
2013-06-05 14:42:00,73.5,58.3,30.84,North,0,9.6,9.6,59,0.00,,CLR,0.00,VWS V14.00,2013-06-05 21:42:00,
2013-06-05 14:47:00,73.7,58.0,30.84,North,0,8.2,8.2,58,0.00,,CLR,0.00,VWS V14.00,2013-06-05 21:47:00,
2013-06-05 14:52:00,73.9,57.7,30.84,NNE,22,10.5,10.5,57,0.00,,CLR,0.00,VWS V14.00,2013-06-05 21:52:00,
2013-06-05 14:57:00,74.3,58.1,30.84,NNW,338,9.3,9.3,57,0.00,,CLR,0.00,VWS V14.00,2013-06-05 21:57:00,
2013-06-05 15:02:00,74.4,57.7,30.84,North,0,12.5,12.5,56,0.00,,CLR,0.00,VWS V14.00,2013-06-05 22:02:00,
2013-06-05 15:07:00,75.0,58.3,30.83,North,0,13.1,13.1,56,0.00,,CLR,0.00,VWS V14.00,2013-06-05 22:07:00,
2013-06-05 15:12:00,75.3,58.0,30.83,North,0,14.0,14.0,55,0.00,,CLR,0.00,VWS V14.00,2013-06-05 22:12:00,
2013-06-05 15:17:00,75.5,58.2,30.83,NNE,22,12.0,12.0,55,0.00,,CLR,0.00,VWS V14.00,2013-06-05 22:17:00,
2013-06-05 15:22:00,75.5,58.2,30.83,North,0,12.7,12.7,55,0.00,,CLR,0.00,VWS V14.00,2013-06-05 22:22:00,
2013-06-05 15:27:00,75.7,58.4,30.82,North,0,16.1,16.1,55,0.00,,CLR,0.00,VWS V14.00,2013-06-05 22:27:00,
2013-06-05 15:32:00,75.3,57.5,30.83,North,0,9.3,9.3,54,0.00,,CLR,0.00,VWS V14.00,2013-06-05 22:32:00,
2013-06-05 15:37:00,75.0,57.2,30.82,NNW,338,14.3,14.3,54,0.00,,CLR,0.00,VWS V14.00,2013-06-05 22:37:00,
2013-06-05 15:42:00,75.5,57.2,30.82,North,0,13.6,13.6,53,0.00,,CLR,0.00,VWS V14.00,2013-06-05 22:42:00,
2013-06-05 15:47:00,75.9,57.6,30.82,NNW,338,12.5,12.5,53,0.00,,CLR,0.00,VWS V14.00,2013-06-05 22:47:00,
2013-06-05 15:52:00,77.1,58.1,30.82,North,0,11.6,11.6,52,0.00,,CLR,0.00,VWS V14.00,2013-06-05 22:52:00,
2013-06-05 15:57:00,77.9,58.9,30.82,NNW,338,13.8,13.8,52,0.00,,CLR,0.00,VWS V14.00,2013-06-05 22:57:00,
2013-06-05 16:02:00,78.4,59.3,30.82,North,0,12.5,12.5,52,0.00,,CLR,0.00,VWS V14.00,2013-06-05 23:02:00,
2013-06-05 16:07:00,78.4,59.3,30.82,NNE,22,12.3,12.3,52,0.00,,CLR,0.00,VWS V14.00,2013-06-05 23:07:00,
2013-06-05 16:12:00,78.9,59.8,30.81,North,0,12.9,12.9,52,0.00,,CLR,0.00,VWS V14.00,2013-06-05 23:12:00,
2013-06-05 16:17:00,78.9,59.2,30.81,North,0,16.5,16.5,51,0.00,,CLR,0.00,VWS V14.00,2013-06-05 23:17:00,
2013-06-05 16:22:00,78.6,59.5,30.81,North,0,10.2,10.2,52,0.00,,CLR,0.00,VWS V14.00,2013-06-05 23:22:00,
2013-06-05 16:27:00,79.3,60.2,30.81,North,0,14.0,14.0,52,0.00,,CLR,0.00,VWS V14.00,2013-06-05 23:27:00,
2013-06-05 16:32:00,78.9,59.8,30.81,North,0,11.6,11.6,52,0.00,,CLR,0.00,VWS V14.00,2013-06-05 23:32:00,
2013-06-05 16:37:00,79.5,60.3,30.81,North,0,8.5,8.5,52,0.00,,CLR,0.00,VWS V14.00,2013-06-05 23:37:00,
2013-06-05 16:42:00,78.6,59.5,30.81,North,0,11.8,11.8,52,0.00,,CLR,0.00,VWS V14.00,2013-06-05 23:42:00,
2013-06-05 16:47:00,78.9,60.3,30.80,NNE,22,10.7,10.7,53,0.00,,CLR,0.00,VWS V14.00,2013-06-05 23:47:00,
2013-06-05 16:52:00,79.3,59.6,30.80,NNW,338,11.8,11.8,51,0.00,,CLR,0.00,VWS V14.00,2013-06-05 23:52:00,
2013-06-05 16:57:00,79.5,60.3,30.80,NNW,338,11.6,11.6,52,0.00,,CLR,0.00,VWS V14.00,2013-06-05 23:57:00,
2013-06-05 17:02:00,80.4,60.1,30.80,North,0,6.7,6.7,50,0.00,,CLR,0.00,VWS V14.00,2013-06-06 00:02:00,
2013-06-05 17:07:00,81.1,60.7,30.80,North,0,8.5,8.5,50,0.00,,CLR,0.00,VWS V14.00,2013-06-06 00:07:00,
2013-06-05 17:12:00,80.9,60.5,30.79,NNW,338,10.9,10.9,50,0.00,,CLR,0.00,VWS V14.00,2013-06-06 00:12:00,
2013-06-05 17:17:00,81.3,60.3,30.79,North,0,11.8,11.8,49,0.00,,CLR,0.00,VWS V14.00,2013-06-06 00:17:00,
2013-06-05 17:22:00,81.3,60.3,30.79,NNW,338,13.8,13.8,49,0.00,,CLR,0.00,VWS V14.00,2013-06-06 00:22:00,
2013-06-05 17:27:00,81.5,60.5,30.80,NNW,338,8.9,8.9,49,0.00,,CLR,0.00,VWS V14.00,2013-06-06 00:27:00,
2013-06-05 17:32:00,81.6,60.6,30.79,NNW,338,11.8,11.8,49,0.00,,CLR,0.00,VWS V14.00,2013-06-06 00:32:00,
2013-06-05 17:37:00,81.6,60.6,30.79,North,0,8.7,8.7,49,0.00,,CLR,0.00,VWS V14.00,2013-06-06 00:37:00,
2013-06-05 17:42:00,82.0,61.0,30.79,North,0,2.0,2.0,49,0.00,,CLR,0.00,VWS V14.00,2013-06-06 00:42:00,
2013-06-05 17:47:00,82.2,61.2,30.79,NNW,338,12.5,12.5,49,0.00,,CLR,0.00,VWS V14.00,2013-06-06 00:47:00,
2013-06-05 17:52:00,82.0,61.0,30.79,NNW,338,5.3,5.3,49,0.00,,CLR,0.00,VWS V14.00,2013-06-06 00:52:00,
2013-06-05 17:57:00,82.0,61.0,30.79,North,0,10.2,10.2,49,0.00,,CLR,0.00,VWS V14.00,2013-06-06 00:57:00,
2013-06-05 18:02:00,81.6,60.6,30.79,North,0,13.8,13.8,49,0.00,,CLR,0.00,VWS V14.00,2013-06-06 01:02:00,
2013-06-05 18:07:00,81.5,61.1,30.79,North,0,8.9,8.9,50,0.00,,CLR,0.00,VWS V14.00,2013-06-06 01:07:00,
2013-06-05 18:12:00,81.5,61.1,30.79,NNW,338,7.6,7.6,50,0.00,,CLR,0.00,VWS V14.00,2013-06-06 01:12:00,
2013-06-05 18:17:00,80.9,60.5,30.79,NNW,338,11.4,11.4,50,0.00,,CLR,0.00,VWS V14.00,2013-06-06 01:17:00,
2013-06-05 18:22:00,80.4,60.6,30.79,NW,315,8.5,8.5,51,0.00,,CLR,0.00,VWS V14.00,2013-06-06 01:22:00,
2013-06-05 18:27:00,80.0,60.3,30.78,WNW,292,12.3,12.3,51,0.00,,CLR,0.00,VWS V14.00,2013-06-06 01:27:00,
2013-06-05 18:32:00,79.3,59.6,30.79,WNW,292,9.1,9.1,51,0.00,,CLR,0.00,VWS V14.00,2013-06-06 01:32:00,
2013-06-05 18:37:00,78.9,59.8,30.79,NW,315,8.9,8.9,52,0.00,,CLR,0.00,VWS V14.00,2013-06-06 01:37:00,
2013-06-05 18:42:00,78.8,59.7,30.78,NW,315,14.9,14.9,52,0.00,,CLR,0.00,VWS V14.00,2013-06-06 01:42:00,
2013-06-05 18:47:00,78.6,59.5,30.78,NW,315,15.2,15.2,52,0.00,,CLR,0.00,VWS V14.00,2013-06-06 01:47:00,
2013-06-05 18:52:00,78.2,59.2,30.78,NNW,338,9.3,9.3,52,0.00,,CLR,0.00,VWS V14.00,2013-06-06 01:52:00,
2013-06-05 18:57:00,77.9,59.4,30.78,NW,315,12.5,12.5,53,0.00,,CLR,0.00,VWS V14.00,2013-06-06 01:57:00,
2013-06-05 19:02:00,77.5,59.0,30.78,NNW,338,8.9,8.9,53,0.00,,CLR,0.00,VWS V14.00,2013-06-06 02:02:00,
2013-06-05 19:07:00,76.8,58.9,30.78,NW,315,11.8,11.8,54,0.00,,CLR,0.00,VWS V14.00,2013-06-06 02:07:00,
2013-06-05 19:12:00,75.9,58.6,30.78,NW,315,11.8,11.8,55,0.00,,CLR,0.00,VWS V14.00,2013-06-06 02:12:00,
2013-06-05 19:17:00,75.3,58.0,30.78,NW,315,9.6,9.6,55,0.00,,CLR,0.00,VWS V14.00,2013-06-06 02:17:00,
2013-06-05 19:22:00,75.0,57.8,30.78,NW,315,8.2,8.2,55,0.00,,CLR,0.00,VWS V14.00,2013-06-06 02:22:00,
2013-06-05 19:27:00,74.3,57.6,30.78,NW,315,11.6,11.6,56,0.00,,CLR,0.00,VWS V14.00,2013-06-06 02:27:00,
2013-06-05 19:32:00,73.5,57.8,30.78,NW,315,14.5,14.5,58,0.00,,CLR,0.00,VWS V14.00,2013-06-06 02:32:00,
2013-06-05 19:37:00,72.6,57.5,30.78,NW,315,11.8,11.8,59,0.00,,CLR,0.00,VWS V14.00,2013-06-06 02:37:00,
2013-06-05 19:42:00,72.1,57.0,30.78,WNW,292,14.5,14.5,59,0.00,,CLR,0.00,VWS V14.00,2013-06-06 02:42:00,
2013-06-05 19:47:00,71.7,57.1,30.79,WNW,292,7.8,7.8,60,0.00,,CLR,0.00,VWS V14.00,2013-06-06 02:47:00,
2013-06-05 19:52:00,71.4,57.3,30.79,NW,315,11.6,11.6,61,0.00,,CLR,0.00,VWS V14.00,2013-06-06 02:52:00,
2013-06-05 19:57:00,71.2,56.6,30.79,NW,315,14.0,14.0,60,0.00,,CLR,0.00,VWS V14.00,2013-06-06 02:57:00,
2013-06-05 20:02:00,70.8,56.7,30.79,NNW,338,14.3,14.3,61,0.00,,CLR,0.00,VWS V14.00,2013-06-06 03:02:00,
2013-06-05 20:07:00,70.7,56.6,30.79,NW,315,10.0,10.0,61,0.00,,CLR,0.00,VWS V14.00,2013-06-06 03:07:00,
2013-06-05 20:12:00,70.3,56.2,30.79,NW,315,7.8,7.8,61,0.00,,CLR,0.00,VWS V14.00,2013-06-06 03:12:00,
2013-06-05 20:17:00,69.9,56.3,30.79,North,0,9.1,9.1,62,0.00,,CLR,0.00,VWS V14.00,2013-06-06 03:17:00,
2013-06-05 20:22:00,69.6,56.5,30.79,NNW,338,9.3,9.3,63,0.00,,CLR,0.00,VWS V14.00,2013-06-06 03:22:00,
2013-06-05 20:27:00,69.0,56.3,30.79,NNW,338,13.6,13.6,64,0.00,,CLR,0.00,VWS V14.00,2013-06-06 03:27:00,
2013-06-05 20:32:00,68.3,55.7,30.80,NW,315,7.8,7.8,64,0.00,,CLR,0.00,VWS V14.00,2013-06-06 03:32:00,
2013-06-05 20:37:00,67.8,55.6,30.80,NW,315,14.3,14.3,65,0.00,,CLR,0.00,VWS V14.00,2013-06-06 03:37:00,
2013-06-05 20:42:00,67.2,55.5,30.80,WNW,292,12.5,12.5,66,0.00,,CLR,0.00,VWS V14.00,2013-06-06 03:42:00,
2013-06-05 20:47:00,66.7,55.4,30.80,NW,315,11.6,11.6,67,0.00,,CLR,0.00,VWS V14.00,2013-06-06 03:47:00,
2013-06-05 20:52:00,66.3,55.0,30.80,NNW,338,9.6,9.6,67,0.00,,CLR,0.00,VWS V14.00,2013-06-06 03:52:00,
2013-06-05 20:57:00,66.0,54.7,30.80,NW,315,8.7,8.7,67,0.00,,CLR,0.00,VWS V14.00,2013-06-06 03:57:00,
2013-06-05 21:01:00,65.8,55.0,30.80,NW,315,9.6,9.6,68,0.00,,CLR,0.00,VWS V14.00,2013-06-06 04:01:00,
2013-06-05 21:07:00,65.3,54.5,30.80,NW,315,10.5,10.5,68,0.00,,CLR,0.00,VWS V14.00,2013-06-06 04:07:00,
2013-06-05 21:12:00,65.1,54.7,30.80,NW,315,8.2,8.2,69,0.00,,CLR,0.00,VWS V14.00,2013-06-06 04:12:00,
2013-06-05 21:17:00,64.7,54.3,30.80,NNW,338,8.9,8.9,69,0.00,,CLR,0.00,VWS V14.00,2013-06-06 04:17:00,
2013-06-05 21:22:00,64.4,54.4,30.80,NW,315,12.9,12.9,70,0.00,,CLR,0.00,VWS V14.00,2013-06-06 04:22:00,
2013-06-05 21:27:00,64.0,54.0,30.80,NNW,338,10.5,10.5,70,0.00,,CLR,0.00,VWS V14.00,2013-06-06 04:27:00,
2013-06-05 21:32:00,64.0,54.0,30.80,NNW,338,10.7,10.7,70,0.00,,CLR,0.00,VWS V14.00,2013-06-06 04:32:00,
2013-06-05 21:37:00,63.6,54.0,30.80,NNW,338,14.5,14.5,71,0.00,,CLR,0.00,VWS V14.00,2013-06-06 04:37:00,
2013-06-05 21:42:00,63.5,53.9,30.80,North,0,7.8,7.8,71,0.00,,CLR,0.00,VWS V14.00,2013-06-06 04:42:00,
2013-06-05 21:47:00,63.3,53.8,30.81,NNW,338,7.1,7.1,71,0.00,,CLR,0.00,VWS V14.00,2013-06-06 04:47:00,
2013-06-05 21:52:00,63.1,53.9,30.81,NW,315,6.9,6.9,72,0.00,,CLR,0.00,VWS V14.00,2013-06-06 04:52:00,
2013-06-05 21:57:00,62.9,53.8,30.81,North,0,5.1,5.1,72,0.00,,CLR,0.00,VWS V14.00,2013-06-06 04:57:00,
2013-06-05 22:02:00,62.7,53.5,30.81,NNW,338,6.4,6.4,72,0.00,,CLR,0.00,VWS V14.00,2013-06-06 05:02:00,
2013-06-05 22:07:00,62.4,53.3,30.81,NNW,338,7.3,7.3,72,0.00,,CLR,0.00,VWS V14.00,2013-06-06 05:07:00,
2013-06-05 22:12:00,62.4,53.3,30.80,NNW,338,2.2,2.2,72,0.00,,CLR,0.00,VWS V14.00,2013-06-06 05:12:00,
2013-06-05 22:17:00,62.2,53.1,30.81,NNW,338,7.3,7.3,72,0.00,,CLR,0.00,VWS V14.00,2013-06-06 05:17:00,
2013-06-05 22:22:00,62.2,53.1,30.81,North,0,9.1,9.1,72,0.00,,CLR,0.00,VWS V14.00,2013-06-06 05:22:00,
2013-06-05 22:27:00,61.8,52.7,30.81,North,0,4.0,4.0,72,0.00,,CLR,0.00,VWS V14.00,2013-06-06 05:27:00,
2013-06-05 22:32:00,61.8,52.7,30.80,NW,315,11.4,11.4,72,0.00,,CLR,0.00,VWS V14.00,2013-06-06 05:32:00,
2013-06-05 22:37:00,61.8,52.7,30.81,NW,315,0.0,0.0,72,0.00,,CLR,0.00,VWS V14.00,2013-06-06 05:37:00,
2013-06-05 22:42:00,61.8,53.1,30.81,NNE,22,6.9,6.9,73,0.00,,CLR,0.00,VWS V14.00,2013-06-06 05:42:00,
2013-06-05 22:47:00,61.7,53.3,30.81,NNE,22,9.3,9.3,74,0.00,,CLR,0.00,VWS V14.00,2013-06-06 05:47:00,
2013-06-05 22:52:00,61.7,53.3,30.80,NNE,22,6.2,6.2,74,0.00,,CLR,0.00,VWS V14.00,2013-06-06 05:52:00,
2013-06-05 22:57:00,61.5,53.2,30.80,NNW,338,8.2,8.2,74,0.00,,CLR,0.00,VWS V14.00,2013-06-06 05:57:00,
2013-06-05 23:02:00,61.3,53.0,30.81,NNW,338,7.1,7.1,74,0.00,,CLR,0.00,VWS V14.00,2013-06-06 06:02:00,
2013-06-05 23:07:00,61.5,53.2,30.81,NNW,338,9.6,9.6,74,0.00,,CLR,0.00,VWS V14.00,2013-06-06 06:07:00,
2013-06-05 23:12:00,61.3,53.0,30.81,North,0,2.0,2.0,74,0.00,,CLR,0.00,VWS V14.00,2013-06-06 06:12:00,
2013-06-05 23:17:00,61.3,53.0,30.81,NNW,338,5.8,5.8,74,0.00,,CLR,0.00,VWS V14.00,2013-06-06 06:17:00,
2013-06-05 23:22:00,61.1,52.4,30.81,West,270,4.6,4.6,73,0.00,,CLR,0.00,VWS V14.00,2013-06-06 06:22:00,
2013-06-05 23:27:00,61.1,52.4,30.81,NW,315,2.6,2.6,73,0.00,,CLR,0.00,VWS V14.00,2013-06-06 06:27:00,
2013-06-05 23:32:00,61.1,52.4,30.81,NNW,338,0.0,0.0,73,0.00,,CLR,0.00,VWS V14.00,2013-06-06 06:32:00,
2013-06-05 23:37:00,60.9,52.6,30.80,North,0,3.3,3.3,74,0.00,,CLR,0.00,VWS V14.00,2013-06-06 06:37:00,
2013-06-05 23:42:00,60.6,52.3,30.80,North,0,0.0,0.0,74,0.00,,CLR,0.00,VWS V14.00,2013-06-06 06:42:00,
2013-06-05 23:47:00,60.4,52.1,30.81,NNW,338,6.2,6.2,74,0.00,,CLR,0.00,VWS V14.00,2013-06-06 06:47:00,
2013-06-05 23:52:00,60.4,52.1,30.80,NE,45,4.2,4.2,74,0.00,,CLR,0.00,VWS V14.00,2013-06-06 06:52:00,
2013-06-05 23:57:00,60.4,52.1,30.80,NW,315,4.2,4.2,74,0.00,,CLR,0.00,VWS V14.00,2013-06-06 06:57:00,